createdAt,value
2022-11-07T00:05:11.798Z,0
2022-11-07T00:11:34.751Z,0
2022-11-07T00:17:54.813Z,0
2022-11-07T00:24:17.776Z,0
2022-11-07T00:30:37.783Z,0
2022-11-07T00:37:00.832Z,0
2022-11-07T00:43:21.750Z,0
2022-11-07T00:49:44.772Z,0
2022-11-07T00:56:04.782Z,0
2022-11-07T01:02:27.896Z,0
2022-11-07T01:08:47.825Z,0
2022-11-07T01:15:10.767Z,0
2022-11-07T01:21:30.835Z,0
2022-11-07T01:27:53.727Z,0
2022-11-07T01:34:13.798Z,0
2022-11-07T01:40:36.775Z,0
2022-11-07T01:46:56.733Z,0
2022-11-07T01:53:19.834Z,0
2022-11-07T01:59:39.732Z,0
2022-11-07T02:06:02.790Z,0
2022-11-07T02:12:22.765Z,0
2022-11-07T02:18:45.757Z,0
2022-11-07T02:25:05.769Z,0
2022-11-07T02:31:28.797Z,0
2022-11-07T02:37:48.797Z,0
2022-11-07T02:44:11.763Z,0
2022-11-07T02:50:31.751Z,0
2022-11-07T02:56:54.777Z,0
2022-11-07T03:03:15.014Z,0
2022-11-07T03:09:37.814Z,0
2022-11-07T03:15:57.741Z,0
2022-11-07T03:22:20.746Z,0
2022-11-07T03:28:40.816Z,0
2022-11-07T03:35:03.739Z,0
2022-11-07T03:41:23.766Z,0
2022-11-07T03:47:46.765Z,0
2022-11-07T03:54:06.742Z,0
2022-11-07T04:00:29.817Z,0
2022-11-07T04:06:49.765Z,0
2022-11-07T04:13:13.077Z,0
2022-11-07T04:19:32.728Z,0
2022-11-07T04:25:55.789Z,0
2022-11-07T04:32:15.740Z,0
2022-11-07T04:48:26.747Z,0
2022-11-07T04:54:46.732Z,0
2022-11-07T05:01:09.839Z,0
2022-11-07T05:07:29.748Z,0
2022-11-07T05:13:52.752Z,0
2022-11-07T05:20:12.793Z,0
2022-11-07T05:26:35.793Z,0
2022-11-07T05:32:55.754Z,0
2022-11-07T05:39:18.741Z,0
2022-11-07T05:45:38.774Z,0
2022-11-07T05:52:01.770Z,0
2022-11-07T05:58:21.757Z,0
2022-11-07T06:04:44.758Z,0
2022-11-07T06:11:04.801Z,0
2022-11-07T06:17:27.740Z,0
2022-11-07T06:23:47.793Z,0
2022-11-07T06:30:10.806Z,0
2022-11-07T06:36:30.759Z,0
2022-11-07T06:42:53.778Z,0
2022-11-07T06:49:13.789Z,0
2022-11-07T06:55:36.823Z,0
2022-11-07T07:01:56.785Z,0
2022-11-07T07:08:19.793Z,5.62
2022-11-07T07:14:39.768Z,5.62
2022-11-07T07:21:02.866Z,5.62
2022-11-07T07:27:22.789Z,5.62
2022-11-07T07:33:45.781Z,11.25
2022-11-07T07:40:05.922Z,16.88
2022-11-07T07:46:28.779Z,28.12
2022-11-07T07:52:48.740Z,22.5
2022-11-07T07:59:11.905Z,11.25
2022-11-07T08:05:31.758Z,16.88
2022-11-07T08:11:54.787Z,16.88
2022-11-07T08:18:14.881Z,22.5
2022-11-07T08:24:37.783Z,22.5
2022-11-07T08:30:57.788Z,22.5
2022-11-07T08:37:20.760Z,22.5
2022-11-07T08:43:40.752Z,28.12
2022-11-07T08:50:03.772Z,39.38
2022-11-07T08:56:23.769Z,39.38
2022-11-07T09:03:18.267Z,33.75
2022-11-07T09:09:06.733Z,28.12
2022-11-07T09:15:29.777Z,39.38
2022-11-07T09:21:49.752Z,33.75
2022-11-07T09:28:12.768Z,67.5
2022-11-07T09:34:32.831Z,45
2022-11-07T09:40:55.748Z,33.75
2022-11-07T09:47:15.746Z,39.38
2022-11-07T09:53:38.792Z,45
2022-11-07T10:17:02.706Z,33.75
2022-11-07T10:23:22.743Z,22.5
2022-11-07T10:29:45.779Z,22.5
2022-11-07T10:36:05.809Z,28.12
2022-11-07T10:42:28.780Z,39.38
2022-11-07T10:48:49.081Z,39.38
2022-11-07T10:55:11.800Z,45
2022-11-07T11:01:31.882Z,45
2022-11-07T11:07:54.766Z,67.5
2022-11-07T11:14:14.762Z,61.88
2022-11-07T11:20:37.801Z,140.62
2022-11-07T11:26:57.754Z,56.25
2022-11-07T11:33:20.869Z,73.12
2022-11-07T11:39:40.793Z,73.12
2022-11-07T11:46:03.733Z,67.5
2022-11-07T11:52:23.839Z,39.38
2022-11-07T11:58:46.734Z,50.62
2022-11-07T12:05:06.738Z,45
2022-11-07T12:11:29.789Z,39.38
2022-11-07T12:17:49.764Z,50.62
2022-11-07T12:24:12.781Z,56.25
2022-11-07T12:30:32.765Z,50.62
2022-11-07T12:36:55.793Z,67.5
2022-11-07T12:43:15.852Z,56.25
2022-11-07T12:49:38.769Z,56.25
2022-11-07T12:55:58.773Z,39.38
2022-11-07T13:02:21.834Z,45
2022-11-07T13:08:41.807Z,56.25
2022-11-07T13:15:04.794Z,56.25
2022-11-07T13:21:24.752Z,45
2022-11-07T13:27:47.831Z,28.12
2022-11-07T13:34:07.759Z,33.75
2022-11-07T13:40:31.027Z,39.38
2022-11-07T13:46:51.021Z,28.12
2022-11-07T13:53:14.024Z,22.5
2022-11-07T13:59:36.577Z,22.5
2022-11-07T14:05:56.754Z,16.88
2022-11-07T14:12:16.758Z,22.5
2022-11-07T14:18:39.929Z,22.5
2022-11-07T14:25:00.044Z,16.88
2022-11-07T14:31:22.742Z,11.25
2022-11-07T14:37:42.732Z,16.88
2022-11-07T14:44:05.818Z,16.88
2022-11-07T14:50:25.744Z,16.88
2022-11-07T14:56:48.809Z,11.25
2022-11-07T15:03:08.844Z,11.25
2022-11-07T15:09:31.761Z,11.25
2022-11-07T15:15:51.995Z,11.25
2022-11-07T15:22:15.077Z,5.62
2022-11-07T15:39:09.697Z,0
2022-11-07T15:45:32.730Z,0
2022-11-07T15:51:52.776Z,0
2022-11-07T15:58:16.124Z,0
2022-11-07T16:04:39.539Z,0
2022-11-07T16:10:58.785Z,0
2022-11-07T16:17:18.780Z,0
2022-11-07T16:23:41.771Z,0
2022-11-07T16:30:01.727Z,0
2022-11-07T16:36:24.772Z,0
2022-11-07T16:42:44.784Z,0
2022-11-07T16:49:07.866Z,0
2022-11-07T16:55:27.798Z,0
2022-11-07T17:01:50.821Z,0
2022-11-07T17:08:10.732Z,0
2022-11-07T17:14:34.071Z,0
2022-11-07T17:20:53.746Z,0
2022-11-07T17:27:16.773Z,0
2022-11-07T17:33:36.749Z,0
2022-11-07T17:39:59.783Z,0
2022-11-07T17:46:19.723Z,0
2022-11-07T17:52:42.749Z,0
2022-11-07T17:59:02.772Z,0
2022-11-07T18:05:30.289Z,0
2022-11-07T18:11:45.827Z,0
2022-11-07T18:18:10.984Z,0
2022-11-07T18:24:28.749Z,0
2022-11-07T18:30:51.782Z,0
2022-11-07T18:37:11.730Z,0
2022-11-07T18:43:34.801Z,0
2022-11-07T18:49:57.262Z,0
2022-11-07T18:56:17.770Z,0
2022-11-07T19:02:37.794Z,0
2022-11-07T19:09:00.748Z,0
2022-11-07T19:15:20.755Z,0
2022-11-07T19:21:43.932Z,0
2022-11-07T19:28:03.754Z,0
2022-11-07T19:34:26.768Z,0
2022-11-07T19:40:46.729Z,0
2022-11-07T19:47:09.768Z,0
2022-11-07T19:53:29.751Z,0
2022-11-07T19:59:52.751Z,0
2022-11-07T20:06:12.840Z,0
2022-11-07T20:12:35.737Z,0
2022-11-07T20:18:55.744Z,0
2022-11-07T20:25:18.781Z,0
2022-11-07T20:31:38.737Z,0
2022-11-07T20:38:01.801Z,0
2022-11-07T20:44:21.766Z,0
2022-11-07T21:09:08.155Z,0
2022-11-07T21:15:27.741Z,0
2022-11-07T21:21:50.729Z,0
2022-11-07T21:28:10.786Z,0
2022-11-07T21:34:33.734Z,0
2022-11-07T21:40:53.787Z,0
2022-11-07T21:47:16.794Z,0
2022-11-07T21:53:38.080Z,0
2022-11-07T21:59:59.768Z,0
2022-11-07T22:06:19.780Z,0
2022-11-07T22:12:42.907Z,0
2022-11-07T22:19:02.809Z,0
2022-11-07T22:25:25.772Z,0
2022-11-07T22:31:45.754Z,0
2022-11-07T22:38:08.757Z,0
2022-11-07T22:44:28.820Z,0
2022-11-07T22:50:51.772Z,0
2022-11-07T22:57:15.354Z,0
2022-11-07T23:20:08.763Z,0
2022-11-07T23:26:28.725Z,0
2022-11-07T23:32:51.770Z,0
2022-11-07T23:39:11.814Z,0
2022-11-07T23:45:34.753Z,0
2022-11-07T23:51:54.769Z,0
2022-11-07T23:58:18.080Z,0
